sensor_id;sensor_type;location;lat;lon;timestamp;P1;durP1;ratioP1;P2;durP2;ratioP2
46719;SDS011;32452;51.382;-0.002;2023-08-07T00:00:26;4.25;;;2.28;;
46719;SDS011;32452;51.382;-0.002;2023-08-07T00:03:12;2.83;;;1.55;;
46719;SDS011;32452;51.382;-0.002;2023-08-07T00:06:03;2.38;;;1.10;;
46719;SDS011;32452;51.382;-0.002;2023-08-07T00:08:49;4.25;;;1.70;;
46719;SDS011;32452;51.382;-0.002;2023-08-07T00:11:34;4.55;;;1.35;;
46719;SDS011;32452;51.382;-0.002;2023-08-07T00:18:10;5.00;;;1.85;;
46719;SDS011;32452;51.382;-0.002;2023-08-07T00:20:56;3.53;;;1.58;;
46719;SDS011;32452;51.382;-0.002;2023-08-07T00:23:41;4.57;;;1.45;;
46719;SDS011;32452;51.382;-0.002;2023-08-07T00:26:27;3.25;;;1.90;;
46719;SDS011;32452;51.382;-0.002;2023-08-07T00:29:12;4.63;;;1.63;;
46719;SDS011;32452;51.382;-0.002;2023-08-07T00:31:58;3.40;;;1.80;;
46719;SDS011;32452;51.382;-0.002;2023-08-07T00:34:44;3.63;;;1.80;;
46719;SDS011;32452;51.382;-0.002;2023-08-07T00:37:30;3.10;;;1.80;;
46719;SDS011;32452;51.382;-0.002;2023-08-07T00:40:16;5.53;;;1.80;;
46719;SDS011;32452;51.382;-0.002;2023-08-07T00:43:02;4.90;;;2.15;;
46719;SDS011;32452;51.382;-0.002;2023-08-07T00:45:47;3.67;;;1.77;;
46719;SDS011;32452;51.382;-0.002;2023-08-07T00:48:33;4.18;;;1.98;;
46719;SDS011;32452;51.382;-0.002;2023-08-07T00:51:19;3.35;;;1.50;;
46719;SDS011;32452;51.382;-0.002;2023-08-07T00:54:05;6.97;;;1.90;;
46719;SDS011;32452;51.382;-0.002;2023-08-07T00:56:53;5.22;;;1.90;;
46719;SDS011;32452;51.382;-0.002;2023-08-07T00:59:39;3.15;;;1.70;;
46719;SDS011;32452;51.382;-0.002;2023-08-07T01:02:24;6.03;;;2.10;;
46719;SDS011;32452;51.382;-0.002;2023-08-07T01:05:10;2.65;;;1.60;;
46719;SDS011;32452;51.382;-0.002;2023-08-07T01:07:56;2.78;;;1.60;;
46719;SDS011;32452;51.382;-0.002;2023-08-07T01:13:40;5.38;;;1.77;;
46719;SDS011;32452;51.382;-0.002;2023-08-07T01:19:56;4.45;;;1.80;;
46719;SDS011;32452;51.382;-0.002;2023-08-07T01:22:42;4.75;;;1.63;;
46719;SDS011;32452;51.382;-0.002;2023-08-07T01:25:28;4.00;;;1.50;;
46719;SDS011;32452;51.382;-0.002;2023-08-07T01:28:21;4.82;;;1.80;;
46719;SDS011;32452;51.382;-0.002;2023-08-07T01:31:15;2.88;;;1.63;;
46719;SDS011;32452;51.382;-0.002;2023-08-07T01:34:07;3.35;;;1.55;;
46719;SDS011;32452;51.382;-0.002;2023-08-07T01:36:55;5.70;;;1.83;;
46719;SDS011;32452;51.382;-0.002;2023-08-07T01:39:43;4.07;;;1.52;;
46719;SDS011;32452;51.382;-0.002;2023-08-07T01:42:29;9.00;;;1.88;;
46719;SDS011;32452;51.382;-0.002;2023-08-07T01:45:23;3.72;;;1.58;;
46719;SDS011;32452;51.382;-0.002;2023-08-07T01:50:56;3.65;;;1.30;;
46719;SDS011;32452;51.382;-0.002;2023-08-07T01:53:41;3.08;;;1.48;;
46719;SDS011;32452;51.382;-0.002;2023-08-07T01:56:27;3.95;;;1.70;;
46719;SDS011;32452;51.382;-0.002;2023-08-07T01:59:12;7.13;;;1.90;;
46719;SDS011;32452;51.382;-0.002;2023-08-07T02:01:58;5.60;;;1.63;;
46719;SDS011;32452;51.382;-0.002;2023-08-07T02:04:43;5.38;;;1.70;;
46719;SDS011;32452;51.382;-0.002;2023-08-07T02:07:29;4.05;;;1.38;;
46719;SDS011;32452;51.382;-0.002;2023-08-07T02:10:15;3.58;;;1.80;;
46719;SDS011;32452;51.382;-0.002;2023-08-07T02:13:01;3.05;;;1.60;;
46719;SDS011;32452;51.382;-0.002;2023-08-07T02:15:47;4.55;;;1.88;;
46719;SDS011;32452;51.382;-0.002;2023-08-07T02:18:32;4.55;;;1.60;;
46719;SDS011;32452;51.382;-0.002;2023-08-07T02:21:18;7.22;;;2.08;;
46719;SDS011;32452;51.382;-0.002;2023-08-07T02:24:04;3.55;;;1.80;;
46719;SDS011;32452;51.382;-0.002;2023-08-07T02:26:49;5.15;;;1.60;;
46719;SDS011;32452;51.382;-0.002;2023-08-07T02:29:35;4.05;;;1.88;;
46719;SDS011;32452;51.382;-0.002;2023-08-07T02:32:21;3.20;;;1.52;;
46719;SDS011;32452;51.382;-0.002;2023-08-07T02:35:06;3.80;;;1.88;;
46719;SDS011;32452;51.382;-0.002;2023-08-07T02:37:53;2.45;;;1.50;;
46719;SDS011;32452;51.382;-0.002;2023-08-07T02:40:38;3.45;;;1.50;;
46719;SDS011;32452;51.382;-0.002;2023-08-07T02:43:24;2.95;;;1.50;;
46719;SDS011;32452;51.382;-0.002;2023-08-07T02:46:10;4.05;;;1.55;;
46719;SDS011;32452;51.382;-0.002;2023-08-07T02:48:56;6.72;;;1.95;;
46719;SDS011;32452;51.382;-0.002;2023-08-07T02:51:41;4.40;;;1.55;;
46719;SDS011;32452;51.382;-0.002;2023-08-07T02:54:27;4.95;;;1.60;;
46719;SDS011;32452;51.382;-0.002;2023-08-07T02:57:12;2.72;;;1.70;;
46719;SDS011;32452;51.382;-0.002;2023-08-07T02:59:58;5.68;;;1.77;;
46719;SDS011;32452;51.382;-0.002;2023-08-07T03:02:43;2.40;;;1.48;;
46719;SDS011;32452;51.382;-0.002;2023-08-07T03:05:29;4.47;;;1.77;;
46719;SDS011;32452;51.382;-0.002;2023-08-07T03:08:15;4.47;;;1.80;;
46719;SDS011;32452;51.382;-0.002;2023-08-07T03:11:00;3.25;;;1.65;;
46719;SDS011;32452;51.382;-0.002;2023-08-07T03:13:46;4.55;;;2.10;;
46719;SDS011;32452;51.382;-0.002;2023-08-07T03:16:31;3.42;;;1.85;;
46719;SDS011;32452;51.382;-0.002;2023-08-07T03:19:17;2.80;;;1.60;;
46719;SDS011;32452;51.382;-0.002;2023-08-07T03:22:06;4.35;;;1.80;;
46719;SDS011;32452;51.382;-0.002;2023-08-07T03:24:51;5.78;;;1.83;;
46719;SDS011;32452;51.382;-0.002;2023-08-07T03:27:37;4.50;;;1.70;;
46719;SDS011;32452;51.382;-0.002;2023-08-07T03:30:23;6.05;;;2.90;;
46719;SDS011;32452;51.382;-0.002;2023-08-07T03:33:08;3.92;;;1.75;;
46719;SDS011;32452;51.382;-0.002;2023-08-07T03:35:54;5.25;;;1.92;;
46719;SDS011;32452;51.382;-0.002;2023-08-07T03:38:40;3.92;;;1.67;;
46719;SDS011;32452;51.382;-0.002;2023-08-07T03:41:25;3.47;;;1.58;;
46719;SDS011;32452;51.382;-0.002;2023-08-07T03:44:11;4.50;;;2.10;;
46719;SDS011;32452;51.382;-0.002;2023-08-07T03:46:57;4.72;;;1.83;;
46719;SDS011;32452;51.382;-0.002;2023-08-07T03:49:42;5.95;;;1.80;;
46719;SDS011;32452;51.382;-0.002;2023-08-07T03:52:28;6.05;;;1.98;;
46719;SDS011;32452;51.382;-0.002;2023-08-07T03:55:13;4.57;;;2.25;;
46719;SDS011;32452;51.382;-0.002;2023-08-07T03:57:59;4.40;;;1.70;;
46719;SDS011;32452;51.382;-0.002;2023-08-07T04:00:44;6.15;;;2.03;;
46719;SDS011;32452;51.382;-0.002;2023-08-07T04:03:30;3.75;;;1.70;;
46719;SDS011;32452;51.382;-0.002;2023-08-07T04:06:16;6.38;;;1.80;;
46719;SDS011;32452;51.382;-0.002;2023-08-07T04:09:01;8.35;;;2.42;;
46719;SDS011;32452;51.382;-0.002;2023-08-07T04:11:48;5.53;;;2.90;;
46719;SDS011;32452;51.382;-0.002;2023-08-07T04:14:33;5.55;;;2.42;;
46719;SDS011;32452;51.382;-0.002;2023-08-07T04:17:19;6.03;;;2.05;;
46719;SDS011;32452;51.382;-0.002;2023-08-07T04:20:05;11.70;;;2.28;;
46719;SDS011;32452;51.382;-0.002;2023-08-07T04:22:51;4.75;;;2.35;;
46719;SDS011;32452;51.382;-0.002;2023-08-07T04:25:37;6.55;;;2.40;;
46719;SDS011;32452;51.382;-0.002;2023-08-07T04:28:23;5.03;;;1.90;;
46719;SDS011;32452;51.382;-0.002;2023-08-07T04:31:08;5.85;;;2.15;;
46719;SDS011;32452;51.382;-0.002;2023-08-07T04:33:54;5.30;;;2.20;;
46719;SDS011;32452;51.382;-0.002;2023-08-07T04:36:39;5.63;;;2.38;;
46719;SDS011;32452;51.382;-0.002;2023-08-07T04:39:25;4.70;;;2.22;;
46719;SDS011;32452;51.382;-0.002;2023-08-07T04:42:10;4.10;;;1.73;;
46719;SDS011;32452;51.382;-0.002;2023-08-07T04:44:56;4.60;;;2.30;;
46719;SDS011;32452;51.382;-0.002;2023-08-07T04:47:42;4.78;;;2.17;;
46719;SDS011;32452;51.382;-0.002;2023-08-07T04:50:27;5.70;;;1.98;;
46719;SDS011;32452;51.382;-0.002;2023-08-07T04:53:14;5.00;;;1.92;;
46719;SDS011;32452;51.382;-0.002;2023-08-07T04:56:00;4.47;;;2.10;;
46719;SDS011;32452;51.382;-0.002;2023-08-07T04:58:46;5.35;;;2.38;;
46719;SDS011;32452;51.382;-0.002;2023-08-07T05:01:31;7.07;;;2.55;;
46719;SDS011;32452;51.382;-0.002;2023-08-07T05:04:17;5.72;;;2.10;;
46719;SDS011;32452;51.382;-0.002;2023-08-07T05:07:03;7.57;;;2.00;;
46719;SDS011;32452;51.382;-0.002;2023-08-07T05:09:48;7.28;;;2.70;;
46719;SDS011;32452;51.382;-0.002;2023-08-07T05:12:35;6.45;;;2.70;;
46719;SDS011;32452;51.382;-0.002;2023-08-07T05:15:22;6.75;;;2.40;;
46719;SDS011;32452;51.382;-0.002;2023-08-07T05:18:08;7.25;;;2.63;;
46719;SDS011;32452;51.382;-0.002;2023-08-07T05:20:53;5.45;;;2.42;;
46719;SDS011;32452;51.382;-0.002;2023-08-07T05:23:39;5.40;;;2.70;;
46719;SDS011;32452;51.382;-0.002;2023-08-07T05:26:24;3.80;;;2.10;;
46719;SDS011;32452;51.382;-0.002;2023-08-07T05:29:10;7.07;;;2.47;;
46719;SDS011;32452;51.382;-0.002;2023-08-07T05:31:55;7.18;;;2.60;;
46719;SDS011;32452;51.382;-0.002;2023-08-07T05:34:43;5.93;;;2.95;;
46719;SDS011;32452;51.382;-0.002;2023-08-07T05:37:28;7.80;;;2.88;;
46719;SDS011;32452;51.382;-0.002;2023-08-07T05:40:16;7.10;;;2.63;;
46719;SDS011;32452;51.382;-0.002;2023-08-07T05:43:02;5.78;;;2.85;;
46719;SDS011;32452;51.382;-0.002;2023-08-07T05:45:47;5.93;;;2.50;;
46719;SDS011;32452;51.382;-0.002;2023-08-07T05:48:34;10.18;;;2.53;;
46719;SDS011;32452;51.382;-0.002;2023-08-07T05:51:19;7.05;;;2.30;;
46719;SDS011;32452;51.382;-0.002;2023-08-07T05:54:05;7.70;;;2.70;;
46719;SDS011;32452;51.382;-0.002;2023-08-07T05:56:50;8.73;;;2.70;;
46719;SDS011;32452;51.382;-0.002;2023-08-07T05:59:36;6.82;;;2.75;;
46719;SDS011;32452;51.382;-0.002;2023-08-07T06:02:22;6.68;;;2.65;;
46719;SDS011;32452;51.382;-0.002;2023-08-07T06:05:07;4.22;;;2.00;;
46719;SDS011;32452;51.382;-0.002;2023-08-07T06:07:54;4.50;;;1.88;;
46719;SDS011;32452;51.382;-0.002;2023-08-07T06:10:40;8.93;;;2.20;;
46719;SDS011;32452;51.382;-0.002;2023-08-07T06:13:26;4.85;;;2.17;;
46719;SDS011;32452;51.382;-0.002;2023-08-07T06:16:20;5.00;;;1.88;;
46719;SDS011;32452;51.382;-0.002;2023-08-07T06:19:06;7.45;;;2.58;;
46719;SDS011;32452;51.382;-0.002;2023-08-07T06:22:11;4.72;;;2.35;;
46719;SDS011;32452;51.382;-0.002;2023-08-07T06:24:57;6.57;;;2.13;;
46719;SDS011;32452;51.382;-0.002;2023-08-07T06:27:42;5.90;;;1.75;;
46719;SDS011;32452;51.382;-0.002;2023-08-07T06:30:28;6.25;;;2.10;;
46719;SDS011;32452;51.382;-0.002;2023-08-07T06:33:15;3.78;;;1.70;;
46719;SDS011;32452;51.382;-0.002;2023-08-07T06:36:01;4.68;;;1.73;;
46719;SDS011;32452;51.382;-0.002;2023-08-07T06:38:48;6.22;;;1.88;;
46719;SDS011;32452;51.382;-0.002;2023-08-07T06:41:33;6.57;;;1.90;;
46719;SDS011;32452;51.382;-0.002;2023-08-07T06:44:19;5.70;;;2.00;;
46719;SDS011;32452;51.382;-0.002;2023-08-07T06:47:05;4.32;;;2.03;;
46719;SDS011;32452;51.382;-0.002;2023-08-07T06:49:53;7.63;;;1.92;;
46719;SDS011;32452;51.382;-0.002;2023-08-07T06:52:39;6.07;;;1.70;;
46719;SDS011;32452;51.382;-0.002;2023-08-07T06:55:25;4.03;;;1.60;;
46719;SDS011;32452;51.382;-0.002;2023-08-07T06:58:11;3.83;;;1.65;;
46719;SDS011;32452;51.382;-0.002;2023-08-07T07:00:56;4.97;;;2.25;;
46719;SDS011;32452;51.382;-0.002;2023-08-07T07:03:42;3.85;;;1.60;;
46719;SDS011;32452;51.382;-0.002;2023-08-07T07:06:29;3.60;;;1.63;;
46719;SDS011;32452;51.382;-0.002;2023-08-07T07:09:15;5.03;;;1.77;;
46719;SDS011;32452;51.382;-0.002;2023-08-07T07:12:02;3.28;;;1.55;;
46719;SDS011;32452;51.382;-0.002;2023-08-07T07:14:47;6.60;;;2.08;;
46719;SDS011;32452;51.382;-0.002;2023-08-07T07:17:33;4.82;;;1.90;;
46719;SDS011;32452;51.382;-0.002;2023-08-07T07:20:18;6.53;;;1.90;;
46719;SDS011;32452;51.382;-0.002;2023-08-07T07:23:05;4.63;;;1.40;;
46719;SDS011;32452;51.382;-0.002;2023-08-07T07:25:50;2.78;;;1.55;;
46719;SDS011;32452;51.382;-0.002;2023-08-07T07:28:36;4.18;;;1.63;;
46719;SDS011;32452;51.382;-0.002;2023-08-07T07:31:21;4.95;;;1.73;;
46719;SDS011;32452;51.382;-0.002;2023-08-07T07:34:07;3.50;;;1.35;;
46719;SDS011;32452;51.382;-0.002;2023-08-07T07:36:53;4.57;;;1.58;;
46719;SDS011;32452;51.382;-0.002;2023-08-07T07:39:38;4.88;;;2.30;;
46719;SDS011;32452;51.382;-0.002;2023-08-07T07:42:24;4.57;;;1.60;;
46719;SDS011;32452;51.382;-0.002;2023-08-07T07:45:10;5.28;;;1.77;;
46719;SDS011;32452;51.382;-0.002;2023-08-07T07:47:56;5.03;;;1.55;;
46719;SDS011;32452;51.382;-0.002;2023-08-07T07:50:42;6.57;;;1.48;;
46719;SDS011;32452;51.382;-0.002;2023-08-07T07:53:27;3.28;;;1.33;;
46719;SDS011;32452;51.382;-0.002;2023-08-07T07:56:13;7.30;;;1.58;;
46719;SDS011;32452;51.382;-0.002;2023-08-07T07:58:59;4.80;;;1.60;;
46719;SDS011;32452;51.382;-0.002;2023-08-07T08:01:45;5.40;;;1.48;;
46719;SDS011;32452;51.382;-0.002;2023-08-07T08:04:30;6.35;;;1.80;;
46719;SDS011;32452;51.382;-0.002;2023-08-07T08:07:16;3.17;;;1.48;;
46719;SDS011;32452;51.382;-0.002;2023-08-07T08:10:02;4.35;;;1.35;;
46719;SDS011;32452;51.382;-0.002;2023-08-07T08:12:48;7.07;;;1.73;;
46719;SDS011;32452;51.382;-0.002;2023-08-07T08:15:33;5.50;;;1.50;;
46719;SDS011;32452;51.382;-0.002;2023-08-07T08:18:19;6.40;;;1.48;;
46719;SDS011;32452;51.382;-0.002;2023-08-07T08:21:05;4.85;;;1.77;;
46719;SDS011;32452;51.382;-0.002;2023-08-07T08:23:51;4.55;;;1.52;;
46719;SDS011;32452;51.382;-0.002;2023-08-07T08:26:37;4.38;;;1.40;;
46719;SDS011;32452;51.382;-0.002;2023-08-07T08:29:22;4.88;;;1.83;;
46719;SDS011;32452;51.382;-0.002;2023-08-07T08:32:08;4.15;;;1.27;;
46719;SDS011;32452;51.382;-0.002;2023-08-07T08:34:54;1.98;;;1.27;;
46719;SDS011;32452;51.382;-0.002;2023-08-07T08:37:40;2.28;;;1.20;;
46719;SDS011;32452;51.382;-0.002;2023-08-07T08:40:26;3.10;;;1.10;;
46719;SDS011;32452;51.382;-0.002;2023-08-07T08:43:12;3.47;;;1.30;;
46719;SDS011;32452;51.382;-0.002;2023-08-07T08:45:58;1.80;;;0.98;;
46719;SDS011;32452;51.382;-0.002;2023-08-07T08:48:47;3.75;;;1.35;;
46719;SDS011;32452;51.382;-0.002;2023-08-07T08:51:36;5.03;;;1.23;;
46719;SDS011;32452;51.382;-0.002;2023-08-07T08:54:22;2.33;;;1.10;;
46719;SDS011;32452;51.382;-0.002;2023-08-07T08:57:08;4.45;;;1.63;;
46719;SDS011;32452;51.382;-0.002;2023-08-07T08:59:56;4.28;;;1.35;;
46719;SDS011;32452;51.382;-0.002;2023-08-07T09:02:43;3.92;;;1.33;;
46719;SDS011;32452;51.382;-0.002;2023-08-07T09:05:30;2.65;;;1.20;;
46719;SDS011;32452;51.382;-0.002;2023-08-07T09:08:16;4.50;;;1.25;;
46719;SDS011;32452;51.382;-0.002;2023-08-07T09:11:02;3.28;;;1.15;;
46719;SDS011;32452;51.382;-0.002;2023-08-07T09:13:48;1.70;;;1.02;;
46719;SDS011;32452;51.382;-0.002;2023-08-07T09:16:34;4.55;;;1.65;;
46719;SDS011;32452;51.382;-0.002;2023-08-07T09:19:20;4.38;;;1.10;;
46719;SDS011;32452;51.382;-0.002;2023-08-07T09:22:06;3.38;;;1.20;;
46719;SDS011;32452;51.382;-0.002;2023-08-07T09:24:51;3.15;;;1.00;;
46719;SDS011;32452;51.382;-0.002;2023-08-07T09:27:37;3.35;;;1.00;;
46719;SDS011;32452;51.382;-0.002;2023-08-07T09:30:28;4.63;;;1.45;;
46719;SDS011;32452;51.382;-0.002;2023-08-07T09:33:14;4.20;;;1.13;;
46719;SDS011;32452;51.382;-0.002;2023-08-07T09:36:03;3.10;;;1.00;;
46719;SDS011;32452;51.382;-0.002;2023-08-07T09:38:49;1.85;;;0.65;;
46719;SDS011;32452;51.382;-0.002;2023-08-07T09:41:35;2.65;;;0.85;;
46719;SDS011;32452;51.382;-0.002;2023-08-07T09:44:20;2.20;;;0.98;;
46719;SDS011;32452;51.382;-0.002;2023-08-07T09:47:13;5.68;;;1.20;;
46719;SDS011;32452;51.382;-0.002;2023-08-07T09:49:59;4.93;;;1.40;;
46719;SDS011;32452;51.382;-0.002;2023-08-07T09:52:48;6.97;;;1.20;;
46719;SDS011;32452;51.382;-0.002;2023-08-07T09:55:34;4.55;;;0.85;;
46719;SDS011;32452;51.382;-0.002;2023-08-07T09:58:20;3.50;;;1.08;;
46719;SDS011;32452;51.382;-0.002;2023-08-07T10:01:07;1.65;;;0.80;;
46719;SDS011;32452;51.382;-0.002;2023-08-07T10:03:54;3.60;;;0.93;;
46719;SDS011;32452;51.382;-0.002;2023-08-07T10:06:40;2.92;;;1.13;;
46719;SDS011;32452;51.382;-0.002;2023-08-07T10:09:26;3.40;;;1.00;;
46719;SDS011;32452;51.382;-0.002;2023-08-07T10:12:13;4.85;;;0.85;;
46719;SDS011;32452;51.382;-0.002;2023-08-07T10:15:01;0.88;;;0.60;;
46719;SDS011;32452;51.382;-0.002;2023-08-07T10:17:47;3.33;;;0.90;;
46719;SDS011;32452;51.382;-0.002;2023-08-07T10:20:32;2.55;;;0.80;;
46719;SDS011;32452;51.382;-0.002;2023-08-07T10:23:18;1.73;;;1.00;;
46719;SDS011;32452;51.382;-0.002;2023-08-07T10:26:06;3.35;;;1.05;;
46719;SDS011;32452;51.382;-0.002;2023-08-07T10:28:53;3.67;;;1.38;;
46719;SDS011;32452;51.382;-0.002;2023-08-07T10:31:40;3.72;;;1.00;;
46719;SDS011;32452;51.382;-0.002;2023-08-07T10:34:29;5.00;;;1.02;;
46719;SDS011;32452;51.382;-0.002;2023-08-07T10:40:27;3.33;;;1.00;;
46719;SDS011;32452;51.382;-0.002;2023-08-07T10:43:13;4.45;;;1.10;;
46719;SDS011;32452;51.382;-0.002;2023-08-07T10:46:03;1.52;;;1.02;;
46719;SDS011;32452;51.382;-0.002;2023-08-07T10:48:59;2.80;;;1.20;;
46719;SDS011;32452;51.382;-0.002;2023-08-07T10:51:46;3.67;;;1.15;;
46719;SDS011;32452;51.382;-0.002;2023-08-07T10:54:36;2.42;;;1.10;;
46719;SDS011;32452;51.382;-0.002;2023-08-07T10:57:28;5.45;;;1.60;;
46719;SDS011;32452;51.382;-0.002;2023-08-07T11:00:16;5.28;;;1.70;;
46719;SDS011;32452;51.382;-0.002;2023-08-07T11:03:02;4.95;;;1.58;;
46719;SDS011;32452;51.382;-0.002;2023-08-07T11:05:48;6.18;;;1.77;;
46719;SDS011;32452;51.382;-0.002;2023-08-07T11:08:34;2.92;;;1.08;;
46719;SDS011;32452;51.382;-0.002;2023-08-07T11:11:20;3.53;;;1.60;;
46719;SDS011;32452;51.382;-0.002;2023-08-07T11:14:06;4.55;;;1.40;;
46719;SDS011;32452;51.382;-0.002;2023-08-07T11:16:52;4.03;;;1.73;;
46719;SDS011;32452;51.382;-0.002;2023-08-07T11:19:38;3.65;;;1.52;;
46719;SDS011;32452;51.382;-0.002;2023-08-07T11:22:24;2.85;;;1.17;;
46719;SDS011;32452;51.382;-0.002;2023-08-07T11:25:10;4.43;;;1.45;;
46719;SDS011;32452;51.382;-0.002;2023-08-07T11:27:56;2.65;;;0.77;;
46719;SDS011;32452;51.382;-0.002;2023-08-07T11:30:41;3.25;;;1.00;;
46719;SDS011;32452;51.382;-0.002;2023-08-07T11:33:28;2.72;;;1.00;;
46719;SDS011;32452;51.382;-0.002;2023-08-07T11:36:13;3.20;;;1.23;;
46719;SDS011;32452;51.382;-0.002;2023-08-07T11:38:59;3.22;;;1.15;;
46719;SDS011;32452;51.382;-0.002;2023-08-07T11:41:45;4.40;;;1.00;;
46719;SDS011;32452;51.382;-0.002;2023-08-07T11:44:33;3.88;;;1.00;;
46719;SDS011;32452;51.382;-0.002;2023-08-07T11:47:18;2.13;;;1.00;;
46719;SDS011;32452;51.382;-0.002;2023-08-07T11:50:04;2.22;;;0.95;;
46719;SDS011;32452;51.382;-0.002;2023-08-07T11:52:50;3.25;;;1.00;;
46719;SDS011;32452;51.382;-0.002;2023-08-07T11:55:35;2.17;;;1.08;;
46719;SDS011;32452;51.382;-0.002;2023-08-07T11:58:21;2.42;;;0.90;;
46719;SDS011;32452;51.382;-0.002;2023-08-07T12:01:12;4.45;;;1.30;;
46719;SDS011;32452;51.382;-0.002;2023-08-07T12:06:55;1.92;;;0.75;;
46719;SDS011;32452;51.382;-0.002;2023-08-07T12:09:42;2.58;;;1.13;;
46719;SDS011;32452;51.382;-0.002;2023-08-07T12:12:28;4.18;;;1.65;;
46719;SDS011;32452;51.382;-0.002;2023-08-07T12:15:18;4.97;;;1.20;;
46719;SDS011;32452;51.382;-0.002;2023-08-07T12:18:06;2.58;;;1.10;;
46719;SDS011;32452;51.382;-0.002;2023-08-07T12:20:52;2.78;;;0.98;;
46719;SDS011;32452;51.382;-0.002;2023-08-07T12:23:45;4.28;;;1.08;;
46719;SDS011;32452;51.382;-0.002;2023-08-07T12:26:34;4.25;;;1.30;;
46719;SDS011;32452;51.382;-0.002;2023-08-07T12:29:20;3.85;;;1.23;;
46719;SDS011;32452;51.382;-0.002;2023-08-07T12:32:05;3.67;;;0.98;;
46719;SDS011;32452;51.382;-0.002;2023-08-07T12:34:51;5.13;;;1.48;;
46719;SDS011;32452;51.382;-0.002;2023-08-07T12:37:41;5.65;;;1.63;;
46719;SDS011;32452;51.382;-0.002;2023-08-07T12:40:27;3.65;;;1.52;;
46719;SDS011;32452;51.382;-0.002;2023-08-07T12:43:16;3.10;;;1.17;;
46719;SDS011;32452;51.382;-0.002;2023-08-07T12:46:01;3.17;;;1.15;;
46719;SDS011;32452;51.382;-0.002;2023-08-07T12:48:50;4.22;;;1.25;;
46719;SDS011;32452;51.382;-0.002;2023-08-07T12:51:35;2.17;;;1.30;;
46719;SDS011;32452;51.382;-0.002;2023-08-07T12:54:21;3.88;;;1.38;;
46719;SDS011;32452;51.382;-0.002;2023-08-07T12:57:07;4.38;;;1.48;;
46719;SDS011;32452;51.382;-0.002;2023-08-07T12:59:52;3.92;;;1.40;;
46719;SDS011;32452;51.382;-0.002;2023-08-07T13:02:39;3.20;;;0.93;;
46719;SDS011;32452;51.382;-0.002;2023-08-07T13:05:28;4.70;;;1.55;;
46719;SDS011;32452;51.382;-0.002;2023-08-07T13:08:17;4.63;;;1.30;;
46719;SDS011;32452;51.382;-0.002;2023-08-07T13:11:05;2.42;;;1.30;;
46719;SDS011;32452;51.382;-0.002;2023-08-07T13:13:51;2.55;;;1.10;;
46719;SDS011;32452;51.382;-0.002;2023-08-07T13:16:40;2.03;;;1.20;;
46719;SDS011;32452;51.382;-0.002;2023-08-07T13:19:26;2.22;;;1.20;;
46719;SDS011;32452;51.382;-0.002;2023-08-07T13:22:12;2.33;;;1.20;;
46719;SDS011;32452;51.382;-0.002;2023-08-07T13:24:57;1.63;;;1.00;;
46719;SDS011;32452;51.382;-0.002;2023-08-07T13:27:45;1.73;;;1.08;;
46719;SDS011;32452;51.382;-0.002;2023-08-07T13:30:30;2.55;;;1.20;;
46719;SDS011;32452;51.382;-0.002;2023-08-07T13:33:21;2.88;;;1.27;;
46719;SDS011;32452;51.382;-0.002;2023-08-07T13:36:07;4.22;;;1.20;;
46719;SDS011;32452;51.382;-0.002;2023-08-07T13:38:52;4.28;;;1.30;;
46719;SDS011;32452;51.382;-0.002;2023-08-07T13:41:39;2.95;;;0.95;;
46719;SDS011;32452;51.382;-0.002;2023-08-07T13:44:25;3.00;;;0.98;;
46719;SDS011;32452;51.382;-0.002;2023-08-07T13:47:11;4.50;;;1.60;;
46719;SDS011;32452;51.382;-0.002;2023-08-07T13:49:57;2.35;;;0.80;;
46719;SDS011;32452;51.382;-0.002;2023-08-07T13:52:43;2.40;;;1.08;;
46719;SDS011;32452;51.382;-0.002;2023-08-07T13:55:28;2.53;;;1.17;;
46719;SDS011;32452;51.382;-0.002;2023-08-07T13:58:15;6.47;;;1.10;;
46719;SDS011;32452;51.382;-0.002;2023-08-07T14:01:01;3.22;;;1.02;;
46719;SDS011;32452;51.382;-0.002;2023-08-07T14:03:47;1.75;;;0.93;;
46719;SDS011;32452;51.382;-0.002;2023-08-07T14:06:33;3.72;;;1.38;;
46719;SDS011;32452;51.382;-0.002;2023-08-07T14:09:19;4.30;;;1.20;;
46719;SDS011;32452;51.382;-0.002;2023-08-07T14:12:07;5.53;;;1.50;;
46719;SDS011;32452;51.382;-0.002;2023-08-07T14:14:53;3.55;;;1.23;;
46719;SDS011;32452;51.382;-0.002;2023-08-07T14:17:39;2.75;;;1.25;;
46719;SDS011;32452;51.382;-0.002;2023-08-07T14:20:25;3.42;;;1.20;;
46719;SDS011;32452;51.382;-0.002;2023-08-07T14:23:11;3.47;;;1.10;;
46719;SDS011;32452;51.382;-0.002;2023-08-07T14:26:06;5.45;;;1.40;;
46719;SDS011;32452;51.382;-0.002;2023-08-07T14:28:51;12.82;;;3.10;;
46719;SDS011;32452;51.382;-0.002;2023-08-07T14:31:37;4.80;;;2.00;;
46719;SDS011;32452;51.382;-0.002;2023-08-07T14:34:23;4.00;;;1.35;;
46719;SDS011;32452;51.382;-0.002;2023-08-07T14:37:08;3.08;;;1.23;;
46719;SDS011;32452;51.382;-0.002;2023-08-07T14:39:54;2.60;;;1.30;;
46719;SDS011;32452;51.382;-0.002;2023-08-07T14:42:39;3.38;;;1.10;;
46719;SDS011;32452;51.382;-0.002;2023-08-07T14:45:25;4.25;;;1.10;;
46719;SDS011;32452;51.382;-0.002;2023-08-07T14:48:12;3.60;;;1.25;;
46719;SDS011;32452;51.382;-0.002;2023-08-07T14:50:58;2.90;;;1.42;;
46719;SDS011;32452;51.382;-0.002;2023-08-07T14:53:44;2.20;;;1.20;;
46719;SDS011;32452;51.382;-0.002;2023-08-07T14:56:30;2.40;;;1.15;;
46719;SDS011;32452;51.382;-0.002;2023-08-07T14:59:15;3.47;;;1.13;;
46719;SDS011;32452;51.382;-0.002;2023-08-07T15:02:01;2.90;;;1.23;;
46719;SDS011;32452;51.382;-0.002;2023-08-07T15:04:48;5.95;;;1.42;;
46719;SDS011;32452;51.382;-0.002;2023-08-07T15:07:33;3.47;;;1.55;;
46719;SDS011;32452;51.382;-0.002;2023-08-07T15:10:19;3.03;;;1.17;;
46719;SDS011;32452;51.382;-0.002;2023-08-07T15:13:06;2.80;;;1.13;;
46719;SDS011;32452;51.382;-0.002;2023-08-07T15:15:52;2.65;;;1.20;;
46719;SDS011;32452;51.382;-0.002;2023-08-07T15:18:37;3.00;;;1.20;;
46719;SDS011;32452;51.382;-0.002;2023-08-07T15:21:26;5.40;;;1.35;;
46719;SDS011;32452;51.382;-0.002;2023-08-07T15:24:11;2.30;;;1.38;;
46719;SDS011;32452;51.382;-0.002;2023-08-07T15:26:57;5.63;;;1.35;;
46719;SDS011;32452;51.382;-0.002;2023-08-07T15:29:46;4.07;;;1.45;;
46719;SDS011;32452;51.382;-0.002;2023-08-07T15:32:31;3.65;;;1.52;;
46719;SDS011;32452;51.382;-0.002;2023-08-07T15:35:17;3.67;;;1.42;;
46719;SDS011;32452;51.382;-0.002;2023-08-07T15:38:03;5.88;;;1.63;;
46719;SDS011;32452;51.382;-0.002;2023-08-07T15:40:49;1.55;;;0.98;;
46719;SDS011;32452;51.382;-0.002;2023-08-07T15:43:35;2.70;;;1.25;;
46719;SDS011;32452;51.382;-0.002;2023-08-07T15:46:21;2.00;;;1.00;;
46719;SDS011;32452;51.382;-0.002;2023-08-07T15:49:07;4.63;;;1.55;;
46719;SDS011;32452;51.382;-0.002;2023-08-07T15:51:52;5.75;;;1.77;;
46719;SDS011;32452;51.382;-0.002;2023-08-07T15:54:38;2.75;;;1.20;;
46719;SDS011;32452;51.382;-0.002;2023-08-07T15:57:24;3.92;;;1.27;;
46719;SDS011;32452;51.382;-0.002;2023-08-07T16:00:12;3.88;;;1.30;;
46719;SDS011;32452;51.382;-0.002;2023-08-07T16:03:02;2.92;;;1.30;;
46719;SDS011;32452;51.382;-0.002;2023-08-07T16:05:50;3.15;;;1.33;;
46719;SDS011;32452;51.382;-0.002;2023-08-07T16:08:35;3.22;;;1.23;;
46719;SDS011;32452;51.382;-0.002;2023-08-07T16:11:21;2.45;;;1.08;;
46719;SDS011;32452;51.382;-0.002;2023-08-07T16:14:07;2.83;;;1.20;;
46719;SDS011;32452;51.382;-0.002;2023-08-07T16:16:53;2.20;;;1.23;;
46719;SDS011;32452;51.382;-0.002;2023-08-07T16:19:38;2.22;;;1.10;;
46719;SDS011;32452;51.382;-0.002;2023-08-07T16:22:24;2.53;;;1.02;;
46719;SDS011;32452;51.382;-0.002;2023-08-07T16:25:10;2.17;;;1.23;;
46719;SDS011;32452;51.382;-0.002;2023-08-07T16:27:55;3.33;;;1.60;;
46719;SDS011;32452;51.382;-0.002;2023-08-07T16:30:41;3.05;;;1.00;;
46719;SDS011;32452;51.382;-0.002;2023-08-07T16:33:27;2.70;;;1.40;;
46719;SDS011;32452;51.382;-0.002;2023-08-07T16:36:12;3.80;;;1.30;;
46719;SDS011;32452;51.382;-0.002;2023-08-07T16:38:58;1.77;;;1.25;;
46719;SDS011;32452;51.382;-0.002;2023-08-07T16:41:44;4.90;;;1.60;;
46719;SDS011;32452;51.382;-0.002;2023-08-07T16:44:30;4.65;;;1.98;;